createdAt,value
2019-03-05T00:01:28.306Z,12.23
2019-03-05T00:03:57.911Z,12.23
2019-03-05T00:06:27.575Z,12.80
2019-03-05T00:08:57.236Z,13.10
2019-03-05T00:11:26.952Z,13.30
2019-03-05T00:13:56.436Z,12.07
2019-03-05T00:16:26.145Z,12.03
2019-03-05T00:18:55.816Z,10.23
2019-03-05T00:21:25.469Z,10.10
2019-03-05T00:23:57.378Z,10.00
2019-03-05T00:26:33.208Z,9.43
2019-03-05T00:29:18.099Z,9.97
2019-03-05T00:31:48.837Z,9.97
2019-03-05T00:34:27.553Z,8.40
2019-03-05T00:37:00.149Z,8.60
2019-03-05T00:39:38.489Z,8.20
2019-03-05T00:42:44.705Z,7.23
2019-03-05T00:45:17.329Z,6.70
2019-03-05T00:48:12.714Z,7.23
2019-03-05T00:50:48.153Z,6.30
2019-03-05T00:53:26.700Z,6.33
2019-03-05T00:56:11.110Z,5.93
2019-03-05T00:59:04.786Z,6.23
2019-03-05T01:01:55.241Z,5.53
2019-03-05T01:04:39.575Z,5.80
2019-03-05T01:07:09.191Z,6.30
2019-03-05T01:09:38.769Z,6.10
2019-03-05T01:12:08.586Z,6.47
2019-03-05T01:14:38.251Z,6.40
2019-03-05T01:17:08.039Z,5.97
2019-03-05T01:19:37.728Z,5.60
2019-03-05T01:22:07.503Z,5.73
2019-03-05T01:24:37.114Z,6.67
2019-03-05T01:27:06.727Z,6.70
2019-03-05T01:29:36.327Z,7.33
2019-03-05T01:32:10.789Z,7.50
2019-03-05T01:34:42.019Z,7.70
2019-03-05T01:37:11.672Z,7.67
2019-03-05T01:39:43.100Z,8.37
2019-03-05T01:42:12.980Z,8.10
2019-03-05T01:44:42.479Z,7.97
2019-03-05T01:47:12.133Z,8.40
2019-03-05T01:49:41.693Z,8.03
2019-03-05T01:52:11.267Z,8.43
2019-03-05T01:54:40.749Z,7.90
2019-03-05T01:57:10.433Z,7.63
2019-03-05T01:59:39.985Z,7.97
2019-03-05T02:02:09.727Z,8.23
2019-03-05T02:04:39.321Z,8.03
2019-03-05T02:07:09.023Z,9.07
2019-03-05T02:09:38.661Z,8.73
2019-03-05T02:12:08.208Z,9.17
2019-03-05T02:14:37.766Z,9.10
2019-03-05T02:17:07.366Z,8.60
2019-03-05T02:19:39.942Z,8.47
2019-03-05T02:22:12.736Z,8.37
2019-03-05T02:25:04.395Z,8.47
2019-03-05T02:27:46.076Z,8.10
2019-03-05T02:30:38.336Z,8.23
2019-03-05T02:33:16.959Z,7.67
2019-03-05T02:35:52.594Z,8.63
2019-03-05T02:38:36.949Z,8.30
2019-03-05T02:41:35.254Z,8.13
2019-03-05T02:44:30.086Z,8.00
2019-03-05T02:47:05.559Z,8.97
2019-03-05T02:50:11.438Z,8.37
2019-03-05T02:53:02.178Z,7.57
2019-03-05T02:55:52.646Z,7.67
2019-03-05T02:58:21.085Z,7.23
2019-03-05T03:00:52.466Z,7.60
2019-03-05T03:03:23.796Z,7.63
2019-03-05T03:05:55.062Z,6.87
2019-03-05T03:08:24.710Z,6.37
2019-03-05T03:10:54.274Z,6.53
2019-03-05T03:13:23.910Z,6.43
2019-03-05T03:15:53.446Z,7.10
2019-03-05T03:18:22.985Z,7.10
2019-03-05T03:20:52.674Z,7.70
2019-03-05T03:23:22.257Z,6.20
2019-03-05T03:25:51.798Z,5.90
2019-03-05T03:28:21.371Z,5.40
2019-03-05T03:30:50.965Z,5.70
2019-03-05T03:33:20.517Z,5.50
2019-03-05T03:35:50.159Z,5.23
2019-03-05T03:38:19.859Z,5.40
2019-03-05T03:40:49.396Z,6.30
2019-03-05T03:43:19.087Z,5.70
2019-03-05T03:45:48.612Z,6.77
2019-03-05T03:48:18.298Z,5.93
2019-03-05T03:50:47.894Z,6.70
2019-03-05T03:53:17.400Z,6.23
2019-03-05T03:55:47.070Z,6.77
2019-03-05T03:58:16.677Z,6.13
2019-03-05T04:00:46.339Z,5.73
2019-03-05T04:03:15.926Z,6.00
2019-03-05T04:05:45.430Z,5.80
2019-03-05T04:08:14.961Z,6.13
2019-03-05T04:10:44.501Z,6.20
2019-03-05T04:13:14.073Z,6.20
2019-03-05T04:15:43.741Z,6.00
2019-03-05T04:18:13.333Z,6.63
2019-03-05T04:20:44.518Z,6.30
2019-03-05T04:23:14.044Z,6.03
2019-03-05T04:25:43.714Z,5.87
2019-03-05T04:28:13.312Z,6.40
2019-03-05T04:30:42.964Z,6.20
2019-03-05T04:33:12.464Z,5.97
2019-03-05T04:35:42.048Z,5.93
2019-03-05T04:38:11.734Z,6.20
2019-03-05T04:40:41.244Z,6.43
2019-03-05T04:43:10.863Z,4.97
2019-03-05T04:46:00.227Z,5.67
2019-03-05T04:48:29.749Z,4.93
2019-03-05T04:51:01.017Z,5.50
2019-03-05T04:53:30.493Z,5.00
2019-03-05T04:56:00.107Z,4.20
2019-03-05T04:58:29.711Z,4.33
2019-03-05T05:00:59.383Z,4.37
2019-03-05T05:03:28.896Z,3.67
2019-03-05T05:05:58.388Z,4.43
2019-03-05T05:08:27.932Z,3.90
2019-03-05T05:10:57.629Z,4.03
2019-03-05T05:13:27.132Z,3.10
2019-03-05T05:15:56.687Z,2.67
2019-03-05T05:18:26.225Z,3.13
2019-03-05T05:20:55.733Z,3.00
2019-03-05T05:23:25.411Z,3.27
2019-03-05T05:25:54.916Z,4.43
2019-03-05T05:28:24.524Z,3.70
2019-03-05T05:30:54.180Z,3.50
2019-03-05T05:33:23.662Z,3.30
2019-03-05T05:35:53.187Z,3.47
2019-03-05T05:38:22.901Z,3.53
2019-03-05T05:40:52.413Z,3.53
2019-03-05T05:43:24.977Z,4.03
2019-03-05T05:45:54.997Z,3.97
2019-03-05T05:48:24.560Z,4.10
2019-03-05T05:50:54.068Z,4.13
2019-03-05T05:53:23.636Z,4.17
2019-03-05T05:55:53.309Z,4.23
2019-03-05T05:58:22.930Z,4.07
2019-03-05T06:00:54.249Z,3.90
2019-03-05T06:03:23.879Z,4.00
2019-03-05T06:05:53.402Z,4.03
2019-03-05T06:08:23.095Z,4.40
2019-03-05T06:10:53.233Z,4.50
2019-03-05T06:13:22.965Z,4.53
2019-03-05T06:15:52.576Z,4.20
2019-03-05T06:18:22.195Z,5.13
2019-03-05T06:20:51.764Z,5.23
2019-03-05T06:23:21.367Z,5.43
2019-03-05T06:25:50.965Z,5.00
2019-03-05T06:28:20.560Z,5.20
2019-03-05T06:30:50.207Z,5.90
2019-03-05T06:33:19.775Z,5.00
2019-03-05T06:35:49.477Z,6.03
2019-03-05T06:38:19.094Z,5.97
2019-03-05T06:40:48.640Z,6.20
2019-03-05T06:43:18.165Z,6.40
2019-03-05T06:45:47.688Z,6.23
2019-03-05T06:48:17.169Z,6.23
2019-03-05T06:50:46.698Z,6.43
2019-03-05T06:53:16.351Z,6.63
2019-03-05T06:55:45.820Z,6.40
2019-03-05T06:58:15.492Z,6.83
2019-03-05T07:00:45.179Z,7.10
2019-03-05T07:03:14.700Z,6.00
2019-03-05T07:06:20.508Z,5.83
2019-03-05T07:08:55.613Z,5.97
2019-03-05T07:11:46.483Z,6.50
2019-03-05T07:14:30.373Z,5.53
2019-03-05T07:17:19.415Z,5.17
2019-03-05T07:20:07.036Z,5.53
2019-03-05T07:22:45.848Z,5.13
2019-03-05T07:25:15.369Z,5.20
2019-03-05T07:27:45.011Z,5.30
2019-03-05T07:30:16.988Z,5.00
2019-03-05T07:32:46.556Z,5.53
2019-03-05T07:35:18.131Z,4.73
2019-03-05T07:37:47.735Z,5.57
2019-03-05T07:40:17.289Z,4.57
2019-03-05T07:42:46.834Z,5.13
2019-03-05T07:45:16.843Z,5.07
2019-03-05T07:47:46.418Z,4.17
2019-03-05T07:50:16.038Z,4.43
2019-03-05T07:52:45.672Z,4.50
2019-03-05T07:55:15.897Z,4.40
2019-03-05T07:57:45.629Z,4.27
2019-03-05T08:00:17.393Z,4.43
2019-03-05T08:02:47.025Z,4.00
2019-03-05T08:05:17.269Z,4.27
2019-03-05T08:07:46.877Z,4.23
2019-03-05T08:10:19.997Z,4.33
2019-03-05T08:13:08.906Z,4.80
2019-03-05T08:15:46.044Z,5.03
2019-03-05T08:18:15.586Z,4.73
2019-03-05T08:20:45.221Z,4.50
2019-03-05T08:23:14.773Z,4.23
2019-03-05T08:25:44.446Z,5.10
2019-03-05T08:28:14.132Z,4.27
2019-03-05T08:30:43.809Z,3.83
2019-03-05T08:33:13.311Z,3.97
2019-03-05T08:35:42.858Z,4.17
2019-03-05T08:38:12.426Z,4.43
2019-03-05T08:40:42.195Z,3.93
2019-03-05T08:43:11.693Z,4.13
2019-03-05T08:45:41.255Z,4.27
2019-03-05T08:48:10.798Z,4.00
2019-03-05T08:50:40.425Z,4.00
2019-03-05T08:53:09.996Z,4.23
2019-03-05T08:55:39.497Z,4.00
2019-03-05T08:58:09.023Z,3.70
2019-03-05T09:00:38.605Z,3.73
2019-03-05T09:03:08.148Z,3.67
2019-03-05T09:05:38.884Z,3.90
2019-03-05T09:08:08.941Z,3.70
2019-03-05T09:10:38.573Z,4.37
2019-03-05T09:13:08.733Z,3.80
2019-03-05T09:15:38.403Z,4.30
2019-03-05T09:18:08.131Z,4.30
2019-03-05T09:20:37.725Z,4.67
2019-03-05T09:23:07.316Z,4.40
2019-03-05T09:25:37.011Z,4.30
2019-03-05T09:28:07.451Z,4.27
2019-03-05T09:30:37.056Z,4.60
2019-03-05T09:33:07.001Z,4.40
2019-03-05T09:35:37.412Z,4.73
2019-03-05T09:38:06.970Z,4.53
2019-03-05T09:40:36.612Z,5.13
2019-03-05T09:43:06.277Z,4.83
2019-03-05T09:45:35.923Z,4.67
2019-03-05T09:48:05.520Z,4.47
2019-03-05T09:50:35.240Z,4.97
2019-03-05T09:53:05.168Z,4.33
2019-03-05T09:55:34.817Z,3.90
2019-03-05T09:58:08.470Z,4.00
2019-03-05T10:00:37.039Z,4.70
2019-03-05T10:03:07.864Z,3.70
2019-03-05T10:05:37.566Z,3.67
2019-03-05T10:08:07.204Z,3.47
2019-03-05T10:10:36.778Z,3.23
2019-03-05T10:13:06.469Z,4.13
2019-03-05T10:15:36.036Z,3.73
2019-03-05T10:18:12.840Z,3.70
2019-03-05T10:20:36.884Z,3.53
2019-03-05T10:23:06.542Z,3.70
2019-03-05T10:25:36.224Z,3.43
2019-03-05T10:28:05.973Z,3.27
2019-03-05T10:30:38.725Z,3.00
2019-03-05T10:33:11.846Z,3.57
2019-03-05T10:35:41.487Z,2.97
2019-03-05T10:38:11.862Z,3.30
2019-03-05T10:40:56.216Z,3.07
2019-03-05T10:43:25.859Z,3.10
2019-03-05T10:45:55.617Z,3.63
2019-03-05T10:48:25.723Z,3.00
2019-03-05T10:50:55.706Z,2.93
2019-03-05T10:53:25.421Z,3.00
2019-03-05T10:55:55.139Z,2.80
2019-03-05T10:58:33.258Z,3.37
2019-03-05T11:00:56.529Z,3.83
2019-03-05T11:03:29.135Z,3.13
2019-03-05T11:05:58.994Z,3.80
2019-03-05T11:08:28.678Z,3.63
2019-03-05T11:10:59.899Z,4.10
2019-03-05T11:13:29.444Z,4.27
2019-03-05T11:16:01.216Z,4.10
2019-03-05T11:18:30.927Z,4.27
2019-03-05T11:21:00.619Z,4.23
2019-03-05T11:23:30.201Z,3.67
2019-03-05T11:25:59.823Z,3.83
2019-03-05T11:28:29.434Z,3.53
2019-03-05T11:30:59.054Z,3.93
2019-03-05T11:33:28.995Z,3.67
2019-03-05T11:35:58.624Z,4.03
2019-03-05T11:38:28.131Z,3.70
2019-03-05T11:40:57.773Z,3.50
2019-03-05T11:43:27.496Z,3.37
2019-03-05T11:45:57.087Z,3.40
2019-03-05T11:48:27.353Z,3.50
2019-03-05T11:50:56.930Z,3.27
2019-03-05T11:53:26.565Z,2.87
2019-03-05T11:55:56.045Z,3.20
2019-03-05T11:58:25.672Z,3.07
2019-03-05T12:01:13.340Z,3.00
2019-03-05T12:03:42.988Z,2.90
2019-03-05T12:06:12.778Z,2.90
2019-03-05T12:08:42.372Z,3.43
2019-03-05T12:11:11.981Z,3.40
2019-03-05T12:13:41.505Z,3.13
2019-03-05T12:16:11.133Z,3.30
2019-03-05T12:18:40.849Z,3.93
2019-03-05T12:21:10.466Z,3.47
2019-03-05T12:23:43.765Z,3.50
2019-03-05T12:26:11.346Z,3.50
2019-03-05T12:28:42.351Z,3.60
2019-03-05T12:31:12.181Z,3.80
2019-03-05T12:33:41.696Z,3.57
2019-03-05T12:36:11.475Z,3.60
2019-03-05T12:38:40.966Z,3.40
2019-03-05T12:41:10.575Z,3.47
2019-03-05T12:43:40.093Z,4.00
2019-03-05T12:46:09.898Z,3.77
2019-03-05T12:48:40.442Z,4.10
2019-03-05T12:51:10.468Z,4.47
2019-03-05T12:53:40.174Z,4.23
2019-03-05T12:56:09.839Z,3.40
2019-03-05T12:58:39.453Z,4.10
2019-03-05T13:01:09.728Z,3.70
2019-03-05T13:03:39.376Z,3.60
2019-03-05T13:06:09.254Z,3.63
2019-03-05T13:08:38.860Z,3.73
2019-03-05T13:11:09.417Z,4.37
2019-03-05T13:13:39.610Z,3.70
2019-03-05T13:16:09.316Z,4.33
2019-03-05T13:18:38.956Z,4.67
2019-03-05T13:21:08.803Z,4.30
2019-03-05T13:23:38.387Z,4.00
2019-03-05T13:26:09.273Z,3.93
2019-03-05T13:28:40.570Z,4.60
2019-03-05T13:31:10.349Z,3.70
2019-03-05T13:33:41.947Z,3.90
2019-03-05T13:36:12.591Z,4.07
2019-03-05T13:38:45.385Z,4.27
2019-03-05T13:41:15.673Z,4.57
2019-03-05T13:43:45.183Z,4.33
2019-03-05T13:46:14.679Z,4.13
2019-03-05T13:49:08.322Z,4.70
2019-03-05T13:52:00.711Z,4.27
2019-03-05T13:54:36.809Z,4.63
2019-03-05T13:57:43.728Z,4.03
2019-03-05T14:00:13.707Z,4.20
2019-03-05T14:03:04.061Z,4.40
2019-03-05T14:06:00.741Z,4.07
2019-03-05T14:08:48.500Z,4.13
2019-03-05T14:11:18.811Z,4.40
2019-03-05T14:13:48.359Z,4.17
2019-03-05T14:16:19.691Z,4.20
2019-03-05T14:18:49.325Z,4.20
2019-03-05T14:21:19.012Z,4.87
2019-03-05T14:23:48.631Z,4.43
2019-03-05T14:26:18.282Z,4.50
2019-03-05T14:28:47.869Z,4.63
2019-03-05T14:31:17.502Z,4.70
2019-03-05T14:33:47.015Z,4.20
2019-03-05T14:36:16.596Z,4.60
2019-03-05T14:38:46.137Z,3.73
2019-03-05T14:41:15.793Z,4.10
2019-03-05T14:43:45.516Z,3.80
2019-03-05T14:46:15.319Z,3.87
2019-03-05T14:48:44.986Z,3.70
2019-03-05T14:51:14.580Z,3.60
2019-03-05T14:53:44.180Z,3.93
2019-03-05T14:56:13.878Z,3.70
2019-03-05T14:58:43.436Z,3.57
2019-03-05T15:01:13.000Z,3.97
2019-03-05T15:03:42.671Z,3.67
2019-03-05T15:06:12.247Z,3.60
2019-03-05T15:08:41.854Z,3.93
2019-03-05T15:11:11.498Z,3.47
2019-03-05T15:13:41.020Z,3.73
2019-03-05T15:16:10.546Z,3.57
2019-03-05T15:18:40.313Z,4.10
2019-03-05T15:21:09.967Z,3.90
2019-03-05T15:23:39.541Z,4.03
2019-03-05T15:26:09.141Z,3.80
2019-03-05T15:28:38.877Z,3.87
2019-03-05T15:31:08.453Z,3.37
2019-03-05T15:33:37.984Z,3.53
2019-03-05T15:36:07.635Z,3.30
2019-03-05T15:38:37.161Z,4.10
2019-03-05T15:41:06.788Z,3.80
2019-03-05T15:43:36.563Z,3.50
2019-03-05T15:46:06.202Z,3.67
2019-03-05T15:48:35.818Z,3.60
2019-03-05T15:51:05.419Z,3.57
2019-03-05T15:53:35.150Z,3.20
2019-03-05T15:56:04.885Z,3.90
2019-03-05T15:58:34.589Z,3.10
2019-03-05T16:01:04.197Z,3.37
2019-03-05T16:03:34.843Z,3.07
2019-03-05T16:06:04.447Z,3.40
2019-03-05T16:08:34.075Z,3.10
2019-03-05T16:11:03.635Z,3.63
2019-03-05T16:13:33.189Z,3.33
2019-03-05T16:16:02.860Z,3.23
2019-03-05T16:18:32.432Z,3.37
2019-03-05T16:21:02.955Z,3.87
2019-03-05T16:23:33.346Z,3.70
2019-03-05T16:26:02.998Z,3.63
2019-03-05T16:28:32.516Z,3.87
2019-03-05T16:31:07.683Z,3.80
2019-03-05T16:33:54.263Z,3.97
2019-03-05T16:36:34.737Z,3.73
2019-03-05T16:39:13.573Z,3.67
2019-03-05T16:41:44.730Z,3.70
2019-03-05T16:44:28.221Z,3.90
2019-03-05T16:46:59.451Z,3.90
2019-03-05T16:49:34.198Z,4.10
2019-03-05T16:52:11.357Z,4.30
2019-03-05T16:54:57.832Z,3.83
2019-03-05T16:57:31.733Z,3.60
2019-03-05T17:00:21.012Z,3.70
2019-03-05T17:02:57.978Z,3.43
2019-03-05T17:05:38.181Z,3.77
2019-03-05T17:08:24.619Z,3.73
2019-03-05T17:10:58.641Z,4.23
2019-03-05T17:13:28.277Z,4.27
2019-03-05T17:15:57.896Z,4.03
2019-03-05T17:18:27.415Z,3.90
2019-03-05T17:20:57.199Z,4.33
2019-03-05T17:23:26.772Z,4.10
2019-03-05T17:25:56.294Z,4.30
2019-03-05T17:28:26.981Z,4.00
2019-03-05T17:30:56.572Z,4.53
2019-03-05T17:33:26.161Z,4.30
2019-03-05T17:35:55.684Z,4.63
2019-03-05T17:38:25.315Z,4.50
2019-03-05T17:40:54.793Z,4.87
2019-03-05T17:43:24.546Z,4.27
2019-03-05T17:45:54.064Z,4.13
2019-03-05T17:48:23.640Z,4.97
2019-03-05T17:50:53.232Z,4.60
2019-03-05T17:53:22.684Z,4.80
2019-03-05T17:55:52.312Z,4.77
2019-03-05T17:58:21.927Z,4.80
2019-03-05T18:00:52.790Z,4.80
2019-03-05T18:03:22.307Z,5.10
2019-03-05T18:05:56.903Z,4.93
2019-03-05T18:08:26.536Z,4.23
2019-03-05T18:10:56.131Z,4.90
2019-03-05T18:13:27.928Z,4.87
2019-03-05T18:15:58.189Z,4.93
2019-03-05T18:18:27.819Z,4.53
2019-03-05T18:20:57.415Z,5.10
2019-03-05T18:23:26.926Z,4.97
2019-03-05T18:25:56.522Z,5.17
2019-03-05T18:28:26.359Z,5.33
2019-03-05T18:30:55.976Z,5.10
2019-03-05T18:33:25.701Z,5.50
2019-03-05T18:35:55.285Z,5.27
2019-03-05T18:38:24.777Z,5.57
2019-03-05T18:40:54.437Z,6.20
2019-03-05T18:43:23.942Z,5.90
2019-03-05T18:45:53.539Z,6.30
2019-03-05T18:48:26.460Z,6.30
2019-03-05T18:50:56.288Z,6.03
2019-03-05T18:53:25.777Z,6.73
2019-03-05T18:55:55.363Z,6.20
2019-03-05T18:58:24.962Z,6.10
2019-03-05T19:00:54.522Z,6.50
2019-03-05T19:03:24.305Z,6.67
2019-03-05T19:05:53.875Z,6.60
2019-03-05T19:08:23.401Z,7.27
2019-03-05T19:10:54.251Z,7.73
2019-03-05T19:13:23.826Z,6.80
2019-03-05T19:15:53.465Z,6.30
2019-03-05T19:18:23.222Z,6.50
2019-03-05T19:20:52.752Z,6.53
2019-03-05T19:23:22.371Z,6.83
2019-03-05T19:25:51.978Z,7.27
2019-03-05T19:28:21.436Z,6.73
2019-03-05T19:30:52.209Z,6.93
2019-03-05T19:33:21.797Z,6.93
2019-03-05T19:35:51.307Z,7.40
2019-03-05T19:38:21.236Z,7.63
2019-03-05T19:40:50.825Z,7.60
2019-03-05T19:43:20.456Z,7.63
2019-03-05T19:45:50.057Z,7.17
2019-03-05T19:48:19.813Z,7.33
2019-03-05T19:50:49.401Z,7.40
2019-03-05T19:53:18.901Z,6.73
2019-03-05T19:55:48.491Z,6.23
2019-03-05T19:58:18.104Z,7.20
2019-03-05T20:01:06.355Z,6.77
2019-03-05T20:03:36.016Z,6.97
2019-03-05T20:06:06.172Z,7.30
2019-03-05T20:08:39.920Z,6.60
2019-03-05T20:11:09.148Z,7.40
2019-03-05T20:13:39.239Z,7.10
2019-03-05T20:16:09.132Z,8.03
2019-03-05T20:18:38.792Z,7.60
2019-03-05T20:21:08.848Z,7.40
2019-03-05T20:23:44.454Z,7.57
2019-03-05T20:26:14.368Z,7.50
2019-03-05T20:28:43.979Z,7.90
2019-03-05T20:31:13.625Z,7.00
2019-03-05T20:33:43.188Z,7.53
2019-03-05T20:36:12.969Z,7.97
2019-03-05T20:38:42.567Z,8.23
2019-03-05T20:41:12.156Z,7.27
2019-03-05T20:43:41.765Z,7.63
2019-03-05T20:46:17.341Z,7.50
2019-03-05T20:48:46.906Z,6.80
2019-03-05T20:51:16.407Z,6.87
2019-03-05T20:53:45.944Z,7.00
2019-03-05T20:56:15.439Z,7.67
2019-03-05T20:58:45.029Z,8.37
2019-03-05T21:01:14.685Z,9.33
2019-03-05T21:03:44.444Z,9.03
2019-03-05T21:06:14.192Z,8.63
2019-03-05T21:08:43.850Z,8.53
2019-03-05T21:11:13.453Z,8.67
2019-03-05T21:13:43.112Z,7.60
2019-03-05T21:16:12.677Z,7.17
2019-03-05T21:18:42.190Z,7.57
2019-03-05T21:21:11.798Z,7.47
2019-03-05T21:23:41.353Z,8.07
2019-03-05T21:26:10.887Z,8.30
2019-03-05T21:28:40.424Z,8.37
2019-03-05T21:31:10.208Z,8.33
2019-03-05T21:33:39.789Z,8.00
2019-03-05T21:36:09.494Z,6.80
2019-03-05T21:38:39.029Z,7.80
2019-03-05T21:41:08.605Z,10.67
2019-03-05T21:43:39.118Z,9.80
2019-03-05T21:46:14.982Z,14.67
2019-03-05T21:48:44.488Z,8.90
2019-03-05T21:51:14.009Z,8.53
2019-03-05T21:53:43.905Z,9.00
2019-03-05T21:56:13.428Z,10.37
2019-03-05T21:58:42.979Z,8.97
2019-03-05T22:01:12.645Z,9.17
2019-03-05T22:03:42.169Z,8.97
2019-03-05T22:06:11.677Z,8.50
2019-03-05T22:08:41.213Z,8.80
2019-03-05T22:11:10.819Z,9.00
2019-03-05T22:13:40.357Z,9.13
2019-03-05T22:16:10.034Z,9.20
2019-03-05T22:18:39.557Z,8.23
2019-03-05T22:21:09.274Z,8.43
2019-03-05T22:23:38.877Z,9.03
2019-03-05T22:26:08.389Z,9.17
2019-03-05T22:28:38.232Z,8.93
2019-03-05T22:31:07.921Z,9.27
2019-03-05T22:33:37.491Z,9.30
2019-03-05T22:36:07.240Z,9.43
2019-03-05T22:38:36.774Z,9.07
2019-03-05T22:41:06.370Z,9.93
2019-03-05T22:43:35.891Z,9.80
2019-03-05T22:46:05.563Z,8.97
2019-03-05T22:48:35.092Z,9.33
2019-03-05T22:51:04.766Z,9.80
2019-03-05T22:53:34.248Z,9.10
2019-03-05T22:56:03.822Z,10.10
2019-03-05T22:58:33.410Z,9.43
2019-03-05T23:01:12.827Z,8.67
2019-03-05T23:03:42.910Z,8.30
2019-03-05T23:06:13.348Z,8.80
2019-03-05T23:08:42.855Z,9.03
2019-03-05T23:11:12.531Z,10.77
2019-03-05T23:13:42.317Z,11.63
2019-03-05T23:16:13.289Z,12.70
2019-03-05T23:18:42.849Z,10.27
2019-03-05T23:21:13.588Z,10.10
2019-03-05T23:23:43.294Z,10.60
2019-03-05T23:26:13.618Z,9.07
2019-03-05T23:28:43.310Z,8.43
2019-03-05T23:31:13.051Z,7.80
2019-03-05T23:33:42.648Z,7.57
2019-03-05T23:36:12.262Z,7.33
2019-03-05T23:38:41.769Z,7.67
2019-03-05T23:41:11.429Z,8.53
2019-03-05T23:43:41.058Z,9.00
2019-03-05T23:46:10.780Z,7.63
2019-03-05T23:48:40.436Z,8.67
2019-03-05T23:51:10.076Z,7.70
2019-03-05T23:53:39.606Z,6.70
2019-03-05T23:56:09.209Z,6.80
2019-03-05T23:58:38.712Z,7.10
